createdAt,value
2019-05-12T00:01:09.337Z,102431.39
2019-05-12T00:03:43.082Z,102440.78
2019-05-12T00:06:17.666Z,102444.38
2019-05-12T00:08:51.556Z,102446.84
2019-05-12T00:11:25.269Z,102446.84
2019-05-12T00:13:58.962Z,102440.56
2019-05-12T00:16:32.654Z,102440.56
2019-05-12T00:19:09.076Z,102448.14
2019-05-12T00:21:41.826Z,102448.14
2019-05-12T00:24:18.506Z,102453.11
2019-05-12T00:26:51.556Z,102451.97
2019-05-12T00:29:25.249Z,102451.94
2019-05-12T00:31:58.948Z,102448.56
2019-05-12T00:34:32.652Z,102452.55
2019-05-12T00:37:08.177Z,102452.55
2019-05-12T00:39:41.741Z,102460.22
2019-05-12T00:42:15.426Z,102460.22
2019-05-12T00:44:49.134Z,102467.78
2019-05-12T00:47:22.833Z,102467.78
2019-05-12T00:49:58.319Z,102483.08
2019-05-12T00:52:32.116Z,102484.23
2019-05-12T00:55:08.029Z,102484.23
2019-05-12T00:57:41.249Z,102497.05
2019-05-12T01:00:14.947Z,102497.05
2019-05-12T01:02:48.680Z,102497.47
2019-05-12T01:05:22.399Z,102504.80
2019-05-12T01:07:58.241Z,102504.80
2019-05-12T01:10:31.540Z,102508.97
2019-05-12T01:13:08.249Z,102510.16
2019-05-12T01:15:41.227Z,102509.69
2019-05-12T01:18:14.931Z,102509.69
2019-05-12T01:20:48.649Z,102513.42
2019-05-12T01:23:23.467Z,102508.63
2019-05-12T01:25:58.604Z,102508.63
2019-05-12T01:28:32.694Z,102506.80
2019-05-12T01:31:08.456Z,102520.19
2019-05-12T01:33:41.773Z,102520.19
2019-05-12T01:36:15.470Z,102529.53
2019-05-12T01:38:49.178Z,102536.67
2019-05-12T01:41:22.879Z,102537.96
2019-05-12T01:43:58.403Z,102541.24
2019-05-12T01:46:32.002Z,102540.48
2019-05-12T01:49:07.995Z,102542.25
2019-05-12T01:51:41.085Z,102544.09
2019-05-12T01:54:15.268Z,102547.59
2019-05-12T01:56:49.172Z,102547.59
2019-05-12T01:59:22.880Z,102551.84
2019-05-12T02:01:58.087Z,102556.81
2019-05-12T02:04:31.944Z,102566.66
2019-05-12T02:07:08.226Z,102572.23
2019-05-12T02:09:41.844Z,102573.78
2019-05-12T02:12:15.544Z,102576.19
2019-05-12T02:14:49.245Z,102582.84
2019-05-12T02:17:22.938Z,102583.06
2019-05-12T02:19:58.571Z,102590.72
2019-05-12T02:22:32.023Z,102587.91
2019-05-12T02:25:07.956Z,102595.45
2019-05-12T02:27:41.168Z,102595.45
2019-05-12T02:30:15.121Z,102603.92
2019-05-12T02:32:53.538Z,102610.72
2019-05-12T02:35:24.847Z,102610.09
2019-05-12T02:37:58.707Z,102610.09
2019-05-12T02:40:34.725Z,102620.14
2019-05-12T02:43:07.806Z,102619.79
2019-05-12T02:45:44.518Z,102620.20
2019-05-12T02:48:16.911Z,102628.55
2019-05-12T02:50:50.593Z,102628.55
2019-05-12T02:53:24.969Z,102635.87
2019-05-12T02:55:58.892Z,102646.44
2019-05-12T02:58:34.664Z,102654.82
2019-05-12T03:01:08.471Z,102660.80
2019-05-12T03:03:44.140Z,102660.80
2019-05-12T03:06:18.311Z,102658.50
2019-05-12T03:08:54.946Z,102658.50
2019-05-12T03:11:27.801Z,102666.91
2019-05-12T03:14:03.920Z,102666.91
2019-05-12T03:16:36.937Z,102665.86
2019-05-12T03:19:14.760Z,102673.41
2019-05-12T03:21:46.761Z,102673.41
2019-05-12T03:24:20.493Z,102673.41
2019-05-12T03:26:55.343Z,102676.47
2019-05-12T03:29:29.243Z,102682.33
2019-05-12T03:32:08.248Z,102682.33
2019-05-12T03:34:38.977Z,102688.25
2019-05-12T03:37:17.973Z,102694.62
2019-05-12T03:39:48.582Z,102699.47
2019-05-12T03:42:25.147Z,102699.47
2019-05-12T03:44:57.682Z,102702.25
2019-05-12T03:47:31.385Z,102699.81
2019-05-12T03:50:06.047Z,102699.81
2019-05-12T03:52:39.761Z,102702.33
2019-05-12T03:55:30.815Z,102712.42
2019-05-12T03:57:50.749Z,102704.56
2019-05-12T04:00:24.951Z,102705.67
2019-05-12T04:02:58.736Z,102712.66
2019-05-12T04:05:34.993Z,102692.50
2019-05-12T04:08:08.326Z,102711.02
2019-05-12T04:10:45.160Z,102721.39
2019-05-12T04:13:17.495Z,102721.39
2019-05-12T04:15:51.185Z,102745.19
2019-05-12T04:18:24.920Z,102745.19
2019-05-12T04:20:58.709Z,102744.66
2019-05-12T04:23:34.847Z,102744.66
2019-05-12T04:26:12.149Z,102749.16
2019-05-12T04:28:45.572Z,102754.41
2019-05-12T04:31:18.650Z,102762.50
2019-05-12T04:33:54.683Z,102758.91
2019-05-12T04:36:27.752Z,102769.58
2019-05-12T04:39:04.220Z,102782.75
2019-05-12T04:41:36.870Z,102782.75
2019-05-12T04:44:10.576Z,102764.27
2019-05-12T04:46:47.078Z,102786.78
2019-05-12T04:49:19.659Z,102790.52
2019-05-12T04:51:54.612Z,102792.83
2019-05-12T04:54:28.564Z,102806.45
2019-05-12T04:57:04.165Z,102815.47
2019-05-12T04:59:37.662Z,102805.20
2019-05-12T05:02:11.365Z,102816.98
2019-05-12T05:04:45.081Z,102814.19
2019-05-12T05:07:18.792Z,102814.19
2019-05-12T05:09:54.850Z,102827.91
2019-05-12T05:12:27.877Z,102833.21
2019-05-12T05:15:01.647Z,102817.47
2019-05-12T05:17:35.350Z,102817.47
2019-05-12T05:20:09.035Z,102836.69
2019-05-12T05:22:44.029Z,102834.17
2019-05-12T05:25:18.043Z,102834.17
2019-05-12T05:27:53.335Z,102843.73
2019-05-12T05:30:27.154Z,102836.17
2019-05-12T05:33:00.844Z,102836.17
2019-05-12T05:35:39.320Z,102850.77
2019-05-12T05:38:10.721Z,102855.26
2019-05-12T05:40:45.471Z,102863.13
2019-05-12T05:43:19.220Z,102873.22
2019-05-12T05:45:56.154Z,102869.59
2019-05-12T05:48:28.401Z,102869.59
2019-05-12T05:51:07.427Z,102886.16
2019-05-12T05:53:37.592Z,102895.68
2019-05-12T05:56:11.288Z,102890.36
2019-05-12T05:58:47.002Z,102890.36
2019-05-12T06:01:20.424Z,102889.80
2019-05-12T06:03:58.393Z,102889.80
2019-05-12T06:06:29.549Z,102897.91
2019-05-12T06:09:04.474Z,102913.30
2019-05-12T06:11:38.194Z,102918.14
2019-05-12T06:14:14.016Z,102918.14
2019-05-12T06:16:47.325Z,102920.73
2019-05-12T06:19:24.093Z,102924.53
2019-05-12T06:21:56.506Z,102926.55
2019-05-12T06:24:30.220Z,102932.56
2019-05-12T06:27:14.321Z,102935.29
2019-05-12T06:29:39.327Z,102927.83
2019-05-12T06:32:14.267Z,102927.83
2019-05-12T06:34:50.880Z,102942.76
2019-05-12T06:37:23.741Z,102944.73
2019-05-12T06:40:00.467Z,102944.73
2019-05-12T06:42:34.192Z,102958.86
2019-05-12T06:45:08.053Z,102965.97
2019-05-12T06:47:45.272Z,102965.97
2019-05-12T06:50:17.158Z,102954.37
2019-05-12T06:52:52.761Z,102949.08
2019-05-12T06:55:28.597Z,102949.08
2019-05-12T06:58:01.651Z,102950.91
2019-05-12T07:00:35.533Z,102963.17
2019-05-12T07:03:09.360Z,102968.31
2019-05-12T07:05:45.194Z,102977.10
2019-05-12T07:08:26.474Z,102977.10
2019-05-12T07:11:02.093Z,102982.27
2019-05-12T07:13:29.617Z,102982.27
2019-05-12T07:16:03.822Z,102982.85
2019-05-12T07:18:37.665Z,102974.78
2019-05-12T07:21:17.829Z,102974.78
2019-05-12T07:23:46.769Z,102978.65
2019-05-12T07:26:20.479Z,102993.84
2019-05-12T07:28:54.247Z,102989.20
2019-05-12T07:31:27.967Z,102982.94
2019-05-12T07:34:05.352Z,102984.65
2019-05-12T07:36:37.137Z,102991.90
2019-05-12T07:39:10.850Z,102990.42
2019-05-12T07:41:50.756Z,102994.77
2019-05-12T07:44:22.206Z,102993.16
2019-05-12T07:46:55.502Z,102988.78
2019-05-12T07:49:33.973Z,102986.95
2019-05-12T07:52:04.600Z,102985.72
2019-05-12T07:54:39.611Z,102986.41
2019-05-12T07:57:17.273Z,102986.41
2019-05-12T07:59:48.857Z,102990.16
2019-05-12T08:02:31.387Z,103001.20
2019-05-12T08:04:57.970Z,103001.20
2019-05-12T08:07:33.666Z,103004.12
2019-05-12T08:10:15.909Z,103004.12
2019-05-12T08:12:44.520Z,103000.21
2019-05-12T08:15:18.350Z,103000.21
2019-05-12T08:17:57.757Z,103003.36
2019-05-12T08:20:27.464Z,103008.27
2019-05-12T08:23:05.738Z,103004.09
2019-05-12T08:25:36.556Z,103013.63
2019-05-12T08:28:15.346Z,103011.45
2019-05-12T08:30:50.496Z,103011.49
2019-05-12T08:33:21.072Z,103011.49
2019-05-12T08:35:55.326Z,103012.26
2019-05-12T08:38:29.251Z,103014.62
2019-05-12T08:41:04.240Z,103012.92
2019-05-12T08:43:40.695Z,103021.11
2019-05-12T08:46:15.669Z,103021.11
2019-05-12T08:48:51.576Z,103027.17
2019-05-12T08:51:25.062Z,103027.17
2019-05-12T08:54:02.312Z,103027.11
2019-05-12T08:56:34.373Z,103032.66
2019-05-12T08:59:09.636Z,103032.66
2019-05-12T09:01:43.879Z,103038.02
2019-05-12T09:04:18.445Z,103041.29
2019-05-12T09:06:56.387Z,103043.30
2019-05-12T09:09:27.633Z,103045.05
2019-05-12T09:12:03.422Z,103050.30
2019-05-12T09:14:41.384Z,103046.09
2019-05-12T09:17:13.846Z,103042.30
2019-05-12T09:19:47.728Z,103042.30
2019-05-12T09:22:23.985Z,103047.40
2019-05-12T09:24:58.504Z,103047.42
2019-05-12T09:27:33.470Z,103047.42
2019-05-12T09:30:09.655Z,103050.53
2019-05-12T09:32:45.423Z,103050.29
2019-05-12T09:35:18.171Z,103042.31
2019-05-12T09:37:53.514Z,103048.95
2019-05-12T09:40:27.446Z,103048.95
2019-05-12T09:43:08.731Z,103053.22
2019-05-12T09:45:40.757Z,103053.22
2019-05-12T09:48:13.852Z,103073.31
2019-05-12T09:50:51.550Z,103073.31
2019-05-12T09:53:23.682Z,103071.83
2019-05-12T09:55:58.581Z,103076.31
2019-05-12T09:58:33.732Z,103079.93
2019-05-12T10:01:07.590Z,103079.93
2019-05-12T10:03:43.537Z,103084.03
2019-05-12T10:06:20.993Z,103075.91
2019-05-12T10:08:54.671Z,103082.81
2019-05-12T10:11:27.504Z,103087.23
2019-05-12T10:14:06.407Z,103090.03
2019-05-12T10:16:39.463Z,103081.60
2019-05-12T10:19:14.435Z,103081.60
2019-05-12T10:21:49.145Z,103081.38
2019-05-12T10:24:23.709Z,103081.38
2019-05-12T10:26:57.476Z,103076.52
2019-05-12T10:29:32.438Z,103076.52
2019-05-12T10:32:06.247Z,103081.50
2019-05-12T10:34:40.444Z,103080.90
2019-05-12T10:37:14.276Z,103080.62
2019-05-12T10:39:47.977Z,103080.62
2019-05-12T10:42:21.679Z,103079.12
2019-05-12T10:44:56.735Z,103079.62
2019-05-12T10:47:30.655Z,103082.86
2019-05-12T10:50:05.837Z,103082.22
2019-05-12T10:52:39.587Z,103082.22
2019-05-12T10:55:14.229Z,103087.17
2019-05-12T10:57:52.979Z,103085.66
2019-05-12T11:00:25.229Z,103100.55
2019-05-12T11:03:01.582Z,103090.55
2019-05-12T11:05:34.402Z,103090.55
2019-05-12T11:08:11.087Z,103092.48
2019-05-12T11:10:43.637Z,103096.00
2019-05-12T11:13:18.152Z,103096.00
2019-05-12T11:15:52.079Z,103096.48
2019-05-12T11:18:30.523Z,103111.74
2019-05-12T11:21:03.429Z,103115.58
2019-05-12T11:23:36.879Z,103105.88
2019-05-12T11:26:10.570Z,103105.88
2019-05-12T11:28:44.265Z,103101.89
2019-05-12T11:31:18.316Z,103101.89
2019-05-12T11:33:53.953Z,103102.89
2019-05-12T11:36:27.400Z,103099.10
2019-05-12T11:39:01.106Z,103091.17
2019-05-12T11:41:34.891Z,103089.02
2019-05-12T11:44:08.608Z,103089.02
2019-05-12T11:46:44.162Z,103110.44
2019-05-12T11:49:21.673Z,103111.89
2019-05-12T11:51:54.261Z,103113.19
2019-05-12T11:54:28.228Z,103113.19
2019-05-12T11:57:01.939Z,103111.06
2019-05-12T11:59:35.639Z,103111.06
2019-05-12T12:02:09.326Z,103115.32
2019-05-12T12:04:43.534Z,103126.34
2019-05-12T12:07:17.312Z,103126.34
2019-05-12T12:09:56.194Z,103114.56
2019-05-12T12:12:26.416Z,103113.45
2019-05-12T12:15:00.226Z,103124.50
2019-05-12T12:17:35.766Z,103124.50
2019-05-12T12:20:13.938Z,103124.44
2019-05-12T12:22:45.510Z,103127.39
2019-05-12T12:25:19.201Z,103127.56
2019-05-12T12:27:53.694Z,103130.81
2019-05-12T12:30:27.678Z,103135.95
2019-05-12T12:33:03.635Z,103135.95
2019-05-12T12:35:36.824Z,103142.06
2019-05-12T12:38:10.527Z,103138.41
2019-05-12T12:40:44.344Z,103138.41
2019-05-12T12:43:18.030Z,103150.91
2019-05-12T12:45:51.738Z,103154.72
2019-05-12T12:48:29.604Z,103159.47
2019-05-12T12:51:00.856Z,103159.11
2019-05-12T12:53:34.561Z,103165.16
2019-05-12T12:56:08.261Z,103161.03
2019-05-12T12:58:43.916Z,103162.15
2019-05-12T13:01:23.252Z,103167.51
2019-05-12T13:03:53.686Z,103171.59
2019-05-12T13:06:27.434Z,103171.59
2019-05-12T13:09:01.137Z,103175.53
2019-05-12T13:11:35.092Z,103180.12
2019-05-12T13:14:08.847Z,103180.12
2019-05-12T13:16:43.679Z,103175.69
2019-05-12T13:19:17.632Z,103175.69
2019-05-12T13:21:53.208Z,103177.83
2019-05-12T13:24:26.739Z,103176.97
2019-05-12T13:27:00.435Z,103176.97
2019-05-12T13:29:38.099Z,103177.31
2019-05-12T13:32:09.530Z,103181.03
2019-05-12T13:34:43.247Z,103183.31
2019-05-12T13:37:19.510Z,103194.19
2019-05-12T13:39:56.877Z,103185.26
2019-05-12T13:42:30.370Z,103185.26
2019-05-12T13:45:05.122Z,103187.70
2019-05-12T13:47:39.986Z,103188.94
2019-05-12T13:50:21.496Z,103188.94
2019-05-12T13:52:49.415Z,103193.37
2019-05-12T13:55:23.964Z,103187.58
2019-05-12T13:57:57.991Z,103188.89
2019-05-12T14:00:33.625Z,103188.89
2019-05-12T14:03:09.517Z,103200.63
2019-05-12T14:05:50.469Z,103200.63
2019-05-12T14:08:17.999Z,103214.56
2019-05-12T14:10:54.008Z,103212.45
2019-05-12T14:13:27.110Z,103210.04
2019-05-12T14:16:02.834Z,103207.80
2019-05-12T14:18:36.473Z,103205.44
2019-05-12T14:21:10.297Z,103205.44
2019-05-12T14:23:43.992Z,103208.12
2019-05-12T14:26:17.704Z,103202.89
2019-05-12T14:28:53.331Z,103209.13
2019-05-12T14:31:30.614Z,103228.74
2019-05-12T14:34:04.199Z,103220.55
2019-05-12T14:36:37.611Z,103220.55
2019-05-12T14:39:13.351Z,103223.86
2019-05-12T14:41:53.216Z,103221.88
2019-05-12T14:44:23.750Z,103220.25
2019-05-12T14:46:57.684Z,103218.03
2019-05-12T14:49:33.219Z,103217.83
2019-05-12T14:52:06.772Z,103223.31
2019-05-12T14:54:40.477Z,103223.31
2019-05-12T14:57:14.192Z,103234.71
2019-05-12T14:59:47.905Z,103231.98
2019-05-12T15:02:25.473Z,103231.98
2019-05-12T15:05:00.151Z,103235.39
2019-05-12T15:07:32.423Z,103239.70
2019-05-12T15:10:08.543Z,103239.70
2019-05-12T15:12:43.850Z,103238.92
2019-05-12T15:15:20.506Z,103238.92
2019-05-12T15:17:56.701Z,103243.77
2019-05-12T15:20:28.129Z,103243.77
2019-05-12T15:23:03.784Z,103240.48
2019-05-12T15:25:37.301Z,103246.95
2019-05-12T15:28:11.045Z,103246.95
2019-05-12T15:30:44.751Z,103262.10
2019-05-12T15:33:18.443Z,103259.43
2019-05-12T15:35:54.427Z,103259.43
2019-05-12T15:38:29.199Z,103264.03
2019-05-12T15:41:04.198Z,103273.94
2019-05-12T15:43:44.248Z,103269.50
2019-05-12T15:46:16.326Z,103283.23
2019-05-12T15:48:53.769Z,103280.97
2019-05-12T15:51:35.052Z,103282.64
2019-05-12T15:54:11.591Z,103291.33
2019-05-12T15:56:42.088Z,103291.33
2019-05-12T15:59:17.378Z,103288.55
2019-05-12T16:01:53.297Z,103285.30
2019-05-12T16:04:26.785Z,103285.30
2019-05-12T16:07:00.479Z,103296.63
2019-05-12T16:09:34.569Z,103293.52
2019-05-12T16:12:18.787Z,103301.48
2019-05-12T16:14:44.269Z,103297.61
2019-05-12T16:17:24.665Z,103297.61
2019-05-12T16:19:54.131Z,103309.80
2019-05-12T16:22:30.692Z,103302.03
2019-05-12T16:25:05.226Z,103315.27
2019-05-12T16:27:38.934Z,103312.08
2019-05-12T16:30:13.950Z,103312.08
2019-05-12T16:32:48.226Z,103321.36
2019-05-12T16:35:26.381Z,103324.66
2019-05-12T16:37:57.411Z,103332.42
2019-05-12T16:40:31.115Z,103332.45
2019-05-12T16:43:04.816Z,103337.00
2019-05-12T16:45:38.536Z,103343.48
2019-05-12T16:48:28.680Z,103343.48
2019-05-12T16:50:47.615Z,103328.36
2019-05-12T16:53:25.800Z,103336.05
2019-05-12T16:55:56.721Z,103337.94
2019-05-12T16:58:33.322Z,103338.87
2019-05-12T17:01:05.825Z,103335.55
2019-05-12T17:03:39.535Z,103333.96
2019-05-12T17:06:14.289Z,103333.96
2019-05-12T17:08:48.106Z,103359.13
2019-05-12T17:11:27.885Z,103354.38
2019-05-12T17:14:04.016Z,103362.28
2019-05-12T17:16:33.519Z,103360.97
2019-05-12T17:19:10.448Z,103365.19
2019-05-12T17:21:44.108Z,103361.61
2019-05-12T17:24:18.037Z,103372.40
2019-05-12T17:26:51.742Z,103369.92
2019-05-12T17:29:25.437Z,103371.64
2019-05-12T17:31:59.151Z,103381.11
2019-05-12T17:34:33.988Z,103381.11
2019-05-12T17:37:07.933Z,103386.13
2019-05-12T17:39:43.638Z,103386.13
2019-05-12T17:42:21.385Z,103402.25
2019-05-12T17:44:54.468Z,103396.77
2019-05-12T17:47:27.857Z,103397.05
2019-05-12T17:50:06.828Z,103397.05
2019-05-12T17:52:36.988Z,103398.77
2019-05-12T17:55:10.978Z,103404.11
2019-05-12T17:57:44.786Z,103404.11
2019-05-12T18:00:18.490Z,103410.25
2019-05-12T18:02:56.265Z,103411.59
2019-05-12T18:05:27.602Z,103411.59
2019-05-12T18:08:01.398Z,103411.80
2019-05-12T18:10:37.947Z,103418.58
2019-05-12T18:13:15.071Z,103416.37
2019-05-12T18:15:45.989Z,103426.42
2019-05-12T18:18:24.101Z,103434.42
2019-05-12T18:20:55.707Z,103433.13
2019-05-12T18:23:30.441Z,103441.38
2019-05-12T18:26:11.811Z,103451.69
2019-05-12T18:28:39.712Z,103443.31
2019-05-12T18:31:13.849Z,103443.31
2019-05-12T18:33:52.101Z,103447.91
2019-05-12T18:36:23.682Z,103447.91
2019-05-12T18:39:09.222Z,103448.45
2019-05-12T18:41:33.670Z,103448.45
2019-05-12T18:44:07.649Z,103456.13
2019-05-12T18:46:44.965Z,103456.13
2019-05-12T18:49:16.743Z,103465.71
2019-05-12T18:51:55.207Z,103464.42
2019-05-12T18:54:25.820Z,103464.42
2019-05-12T18:57:04.865Z,103467.63
2019-05-12T18:59:34.951Z,103468.42
2019-05-12T19:02:08.652Z,103474.13
2019-05-12T19:04:44.348Z,103474.13
2019-05-12T19:07:17.727Z,103469.75
2019-05-12T19:09:51.507Z,103475.20
2019-05-12T19:12:32.216Z,103475.20
2019-05-12T19:15:00.583Z,103475.08
2019-05-12T19:17:34.348Z,103487.27
2019-05-12T19:20:08.052Z,103493.59
2019-05-12T19:22:48.248Z,103494.67
2019-05-12T19:25:19.370Z,103494.67
2019-05-12T19:28:04.580Z,103501.16
2019-05-12T19:30:27.996Z,103501.16
2019-05-12T19:33:06.409Z,103504.14
2019-05-12T19:35:38.060Z,103516.61
2019-05-12T19:38:15.091Z,103516.61
2019-05-12T19:40:55.106Z,103515.43
2019-05-12T19:43:23.793Z,103520.64
2019-05-12T19:46:02.954Z,103525.80
2019-05-12T19:48:36.763Z,103527.89
2019-05-12T19:51:20.764Z,103527.89
2019-05-12T19:53:43.931Z,103544.66
2019-05-12T19:56:19.016Z,103544.66
2019-05-12T19:58:53.825Z,103577.17
2019-05-12T20:01:32.739Z,103545.47
2019-05-12T20:04:03.709Z,103545.47
2019-05-12T20:06:37.586Z,103556.89
2019-05-12T20:09:14.287Z,103548.16
2019-05-12T20:11:46.704Z,103558.51
2019-05-12T20:14:21.491Z,103558.51
2019-05-12T20:16:55.816Z,103554.92
2019-05-12T20:19:29.503Z,103556.91
2019-05-12T20:22:03.593Z,103558.88
2019-05-12T20:24:37.392Z,103555.67
2019-05-12T20:27:17.146Z,103560.05
2019-05-12T20:29:46.498Z,103560.05
2019-05-12T20:32:20.197Z,103571.48
2019-05-12T20:34:55.349Z,103571.48
2019-05-12T20:37:29.276Z,103570.12
2019-05-12T20:40:05.261Z,103580.29
2019-05-12T20:42:42.217Z,103581.19
2019-05-12T20:45:14.618Z,103581.19
2019-05-12T20:47:48.335Z,103584.14
2019-05-12T20:50:24.188Z,103580.77
2019-05-12T20:52:58.876Z,103580.77
2019-05-12T20:55:39.512Z,103586.69
2019-05-12T20:58:08.309Z,103591.30
2019-05-12T21:00:45.551Z,103592.67
2019-05-12T21:03:17.404Z,103597.06
2019-05-12T21:05:58.109Z,103599.97
2019-05-12T21:08:26.467Z,103599.97
2019-05-12T21:11:00.181Z,103600.98
2019-05-12T21:13:34.540Z,103599.97
2019-05-12T21:16:16.588Z,103612.37
2019-05-12T21:18:49.936Z,103616.05
2019-05-12T21:21:19.263Z,103617.77
2019-05-12T21:24:00.269Z,103616.69
2019-05-12T21:26:39.946Z,103616.50
2019-05-12T21:29:13.961Z,103616.50
2019-05-12T21:31:49.169Z,103617.16
2019-05-12T21:34:25.396Z,103617.16
2019-05-12T21:36:59.089Z,103618.27
2019-05-12T21:39:33.680Z,103618.27
2019-05-12T21:42:07.422Z,103622.58
2019-05-12T21:44:46.251Z,103627.11
2019-05-12T21:47:16.535Z,103627.11
2019-05-12T21:49:55.120Z,103630.35
2019-05-12T21:52:25.641Z,103630.35
2019-05-12T21:54:59.339Z,103634.07
2019-05-12T21:57:34.528Z,103636.89
2019-05-12T22:00:18.259Z,103638.03
2019-05-12T22:02:49.722Z,103636.09
2019-05-12T22:05:46.650Z,103641.78
2019-05-12T22:07:58.859Z,103636.14
2019-05-12T22:10:34.464Z,103634.16
2019-05-12T22:13:14.117Z,103634.16
2019-05-12T22:15:43.382Z,103637.56
2019-05-12T22:18:17.079Z,103635.30
2019-05-12T22:20:52.336Z,103613.86
2019-05-12T22:23:26.346Z,103614.70
2019-05-12T22:26:00.506Z,103638.41
2019-05-12T22:28:34.419Z,103638.41
2019-05-12T22:31:08.150Z,103639.27
2019-05-12T22:33:51.578Z,103649.41
2019-05-12T22:36:25.741Z,103642.86
2019-05-12T22:39:00.520Z,103648.80
2019-05-12T22:41:30.450Z,103648.80
2019-05-12T22:44:03.425Z,103648.25
2019-05-12T22:46:37.104Z,103648.25
2019-05-12T22:49:16.815Z,103655.33
2019-05-12T22:51:46.579Z,103655.33
2019-05-12T22:54:20.508Z,103655.28
2019-05-12T22:56:55.196Z,103655.85
2019-05-12T22:59:34.311Z,103659.22
2019-05-12T23:02:05.001Z,103656.13
2019-05-12T23:04:40.365Z,103656.13
2019-05-12T23:07:19.187Z,103664.72
2019-05-12T23:09:49.661Z,103664.72
2019-05-12T23:12:23.720Z,103657.64
2019-05-12T23:15:02.892Z,103662.28
2019-05-12T23:17:33.847Z,103662.28
2019-05-12T23:20:07.842Z,103667.48
2019-05-12T23:22:43.665Z,103668.95
2019-05-12T23:25:21.347Z,103666.98
2019-05-12T23:27:54.241Z,103667.24
2019-05-12T23:30:27.713Z,103671.03
2019-05-12T23:33:03.556Z,103673.23
2019-05-12T23:35:39.419Z,103669.67
2019-05-12T23:38:18.790Z,103669.67
2019-05-12T23:40:48.587Z,103671.67
2019-05-12T23:43:23.727Z,103671.91
2019-05-12T23:45:57.649Z,103680.73
2019-05-12T23:48:33.371Z,103659.22
2019-05-12T23:51:06.739Z,103665.81
2019-05-12T23:53:40.410Z,103669.51
2019-05-12T23:56:14.105Z,103674.37
2019-05-12T23:58:47.785Z,103675.17
